Terminal Aerodrome Forecast
Issued by NWS Caribou, ME

Home | Current Version | Previous Version | Text Only | Print | Product List | Glossary On
Versions: 1 2 3 4 5 6 7 8 9 10 11 12 13 14 15 16 17 18 19 20
000
FTUS41 KCAR 051132
TAFBGR
TAF
KBGR 051132Z 0512/0612 04010KT P6SM OVC007
     FM051600 04010G17KT P6SM OVC006
     FM052300 04013KT 3SM -RA OVC010
     FM060600 36013KT P6SM SCT015 OVC020
     FM060800 36012KT P6SM OVC015
     FM061100 36011KT P6SM SCT015 BKN050=

USA.gov is the U.S. government's official web portal to all federal, state and local government web resources and services.